sensor_id;sensor_type;location;lat;lon;timestamp;P1;durP1;ratioP1;P2;durP2;ratioP2
9836;SDS011;4957;51.412;6.724;2023-06-22T00:02:16;7.87;;;6.43;;
9836;SDS011;4957;51.412;6.724;2023-06-22T00:04:42;11.23;;;6.13;;
9836;SDS011;4957;51.412;6.724;2023-06-22T00:07:07;9.83;;;6.33;;
9836;SDS011;4957;51.412;6.724;2023-06-22T00:09:33;8.10;;;6.13;;
9836;SDS011;4957;51.412;6.724;2023-06-22T00:11:59;9.60;;;6.20;;
9836;SDS011;4957;51.412;6.724;2023-06-22T00:14:25;10.63;;;6.13;;
9836;SDS011;4957;51.412;6.724;2023-06-22T00:16:50;9.70;;;6.50;;
9836;SDS011;4957;51.412;6.724;2023-06-22T00:19:20;9.10;;;5.90;;
9836;SDS011;4957;51.412;6.724;2023-06-22T00:21:47;9.40;;;6.00;;
9836;SDS011;4957;51.412;6.724;2023-06-22T00:24:17;10.10;;;6.37;;
9836;SDS011;4957;51.412;6.724;2023-06-22T00:26:47;8.07;;;6.10;;
9836;SDS011;4957;51.412;6.724;2023-06-22T00:29:13;8.73;;;6.33;;
9836;SDS011;4957;51.412;6.724;2023-06-22T00:31:38;10.13;;;7.67;;
9836;SDS011;4957;51.412;6.724;2023-06-22T00:34:04;10.13;;;6.27;;
9836;SDS011;4957;51.412;6.724;2023-06-22T00:36:31;10.40;;;7.20;;
9836;SDS011;4957;51.412;6.724;2023-06-22T00:38:57;17.47;;;8.20;;
9836;SDS011;4957;51.412;6.724;2023-06-22T00:41:23;9.50;;;7.27;;
9836;SDS011;4957;51.412;6.724;2023-06-22T00:43:48;9.93;;;8.50;;
9836;SDS011;4957;51.412;6.724;2023-06-22T00:46:14;10.83;;;7.50;;
9836;SDS011;4957;51.412;6.724;2023-06-22T00:48:40;12.87;;;9.27;;
9836;SDS011;4957;51.412;6.724;2023-06-22T00:51:08;13.07;;;9.50;;
9836;SDS011;4957;51.412;6.724;2023-06-22T00:53:35;10.73;;;8.50;;
9836;SDS011;4957;51.412;6.724;2023-06-22T00:56:02;9.87;;;6.27;;
9836;SDS011;4957;51.412;6.724;2023-06-22T00:58:30;10.07;;;8.13;;
9836;SDS011;4957;51.412;6.724;2023-06-22T01:00:56;10.20;;;8.13;;
9836;SDS011;4957;51.412;6.724;2023-06-22T01:03:22;10.90;;;7.40;;
9836;SDS011;4957;51.412;6.724;2023-06-22T01:05:48;9.33;;;8.37;;
9836;SDS011;4957;51.412;6.724;2023-06-22T01:11:39;8.60;;;7.17;;
9836;SDS011;4957;51.412;6.724;2023-06-22T01:16:48;11.63;;;8.73;;
9836;SDS011;4957;51.412;6.724;2023-06-22T01:22:10;14.67;;;10.43;;
9836;SDS011;4957;51.412;6.724;2023-06-22T01:24:53;14.50;;;10.57;;
9836;SDS011;4957;51.412;6.724;2023-06-22T01:30:02;12.70;;;9.30;;
9836;SDS011;4957;51.412;6.724;2023-06-22T01:32:31;16.10;;;9.03;;
9836;SDS011;4957;51.412;6.724;2023-06-22T01:35:01;13.90;;;8.77;;
9836;SDS011;4957;51.412;6.724;2023-06-22T01:37:28;14.80;;;9.17;;
9836;SDS011;4957;51.412;6.724;2023-06-22T01:39:57;13.50;;;9.00;;
9836;SDS011;4957;51.412;6.724;2023-06-22T01:42:24;11.13;;;8.60;;
9836;SDS011;4957;51.412;6.724;2023-06-22T01:44:51;13.20;;;8.70;;
9836;SDS011;4957;51.412;6.724;2023-06-22T01:47:18;10.73;;;7.90;;
9836;SDS011;4957;51.412;6.724;2023-06-22T01:49:45;13.13;;;8.50;;
9836;SDS011;4957;51.412;6.724;2023-06-22T01:52:11;12.83;;;8.07;;
9836;SDS011;4957;51.412;6.724;2023-06-22T01:54:37;11.73;;;7.87;;
9836;SDS011;4957;51.412;6.724;2023-06-22T01:57:05;12.07;;;7.47;;
9836;SDS011;4957;51.412;6.724;2023-06-22T02:02:24;12.07;;;7.83;;
9836;SDS011;4957;51.412;6.724;2023-06-22T02:04:56;14.77;;;8.10;;
9836;SDS011;4957;51.412;6.724;2023-06-22T02:07:26;11.60;;;8.10;;
9836;SDS011;4957;51.412;6.724;2023-06-22T02:09:54;9.70;;;8.47;;
9836;SDS011;4957;51.412;6.724;2023-06-22T02:12:23;9.57;;;7.70;;
9836;SDS011;4957;51.412;6.724;2023-06-22T02:14:52;10.50;;;6.97;;
9836;SDS011;4957;51.412;6.724;2023-06-22T02:17:18;10.83;;;8.00;;
9836;SDS011;4957;51.412;6.724;2023-06-22T02:19:44;10.20;;;8.00;;
9836;SDS011;4957;51.412;6.724;2023-06-22T02:22:10;10.83;;;8.23;;
9836;SDS011;4957;51.412;6.724;2023-06-22T02:24:37;12.10;;;7.13;;
9836;SDS011;4957;51.412;6.724;2023-06-22T02:27:03;14.93;;;7.83;;
9836;SDS011;4957;51.412;6.724;2023-06-22T02:29:31;11.77;;;8.67;;
9836;SDS011;4957;51.412;6.724;2023-06-22T02:31:56;11.47;;;9.33;;
9836;SDS011;4957;51.412;6.724;2023-06-22T02:34:22;10.10;;;9.13;;
9836;SDS011;4957;51.412;6.724;2023-06-22T02:36:48;11.10;;;8.80;;
9836;SDS011;4957;51.412;6.724;2023-06-22T02:39:21;12.37;;;9.10;;
9836;SDS011;4957;51.412;6.724;2023-06-22T02:41:54;13.13;;;9.43;;
9836;SDS011;4957;51.412;6.724;2023-06-22T02:44:20;8.97;;;7.47;;
9836;SDS011;4957;51.412;6.724;2023-06-22T02:46:46;15.20;;;8.67;;
9836;SDS011;4957;51.412;6.724;2023-06-22T02:49:12;12.33;;;9.20;;
9836;SDS011;4957;51.412;6.724;2023-06-22T02:51:39;12.40;;;9.33;;
9836;SDS011;4957;51.412;6.724;2023-06-22T02:54:06;10.23;;;8.87;;
9836;SDS011;4957;51.412;6.724;2023-06-22T02:56:32;14.50;;;9.67;;
9836;SDS011;4957;51.412;6.724;2023-06-22T02:58:57;12.90;;;8.50;;
9836;SDS011;4957;51.412;6.724;2023-06-22T03:01:29;10.17;;;8.57;;
9836;SDS011;4957;51.412;6.724;2023-06-22T03:03:58;14.97;;;9.20;;
9836;SDS011;4957;51.412;6.724;2023-06-22T03:06:24;14.37;;;10.13;;
9836;SDS011;4957;51.412;6.724;2023-06-22T03:08:58;12.93;;;10.03;;
9836;SDS011;4957;51.412;6.724;2023-06-22T03:11:25;14.37;;;9.70;;
9836;SDS011;4957;51.412;6.724;2023-06-22T03:13:51;9.23;;;7.87;;
9836;SDS011;4957;51.412;6.724;2023-06-22T03:16:18;15.87;;;9.10;;
9836;SDS011;4957;51.412;6.724;2023-06-22T03:18:44;17.27;;;9.87;;
9836;SDS011;4957;51.412;6.724;2023-06-22T03:21:09;13.20;;;9.60;;
9836;SDS011;4957;51.412;6.724;2023-06-22T03:23:35;9.90;;;8.37;;
9836;SDS011;4957;51.412;6.724;2023-06-22T03:26:01;11.37;;;9.30;;
9836;SDS011;4957;51.412;6.724;2023-06-22T03:28:28;13.67;;;9.93;;
9836;SDS011;4957;51.412;6.724;2023-06-22T03:30:54;12.40;;;9.63;;
9836;SDS011;4957;51.412;6.724;2023-06-22T03:33:22;13.40;;;9.50;;
9836;SDS011;4957;51.412;6.724;2023-06-22T03:35:48;12.83;;;10.13;;
9836;SDS011;4957;51.412;6.724;2023-06-22T03:38:14;13.07;;;10.20;;
9836;SDS011;4957;51.412;6.724;2023-06-22T03:40:41;16.80;;;9.93;;
9836;SDS011;4957;51.412;6.724;2023-06-22T03:43:07;14.40;;;10.50;;
9836;SDS011;4957;51.412;6.724;2023-06-22T03:45:32;12.87;;;9.70;;
9836;SDS011;4957;51.412;6.724;2023-06-22T03:47:58;14.23;;;11.43;;
9836;SDS011;4957;51.412;6.724;2023-06-22T03:50:24;11.77;;;9.30;;
9836;SDS011;4957;51.412;6.724;2023-06-22T03:52:49;17.57;;;11.40;;
9836;SDS011;4957;51.412;6.724;2023-06-22T03:55:17;11.87;;;9.50;;
9836;SDS011;4957;51.412;6.724;2023-06-22T03:57:44;16.33;;;10.90;;
9836;SDS011;4957;51.412;6.724;2023-06-22T04:00:10;13.93;;;10.70;;
9836;SDS011;4957;51.412;6.724;2023-06-22T04:02:36;12.77;;;10.40;;
9836;SDS011;4957;51.412;6.724;2023-06-22T04:05:02;14.70;;;10.87;;
9836;SDS011;4957;51.412;6.724;2023-06-22T04:07:28;13.33;;;11.10;;
9836;SDS011;4957;51.412;6.724;2023-06-22T04:09:53;14.80;;;11.47;;
9836;SDS011;4957;51.412;6.724;2023-06-22T04:12:19;12.53;;;10.37;;
9836;SDS011;4957;51.412;6.724;2023-06-22T04:14:45;11.20;;;9.33;;
9836;SDS011;4957;51.412;6.724;2023-06-22T04:17:10;15.70;;;11.37;;
9836;SDS011;4957;51.412;6.724;2023-06-22T04:19:39;15.33;;;11.53;;
9836;SDS011;4957;51.412;6.724;2023-06-22T04:22:05;16.63;;;11.67;;
9836;SDS011;4957;51.412;6.724;2023-06-22T04:24:32;16.53;;;12.30;;
9836;SDS011;4957;51.412;6.724;2023-06-22T04:26:58;16.70;;;11.30;;
9836;SDS011;4957;51.412;6.724;2023-06-22T04:29:27;15.50;;;11.70;;
9836;SDS011;4957;51.412;6.724;2023-06-22T04:31:56;20.33;;;11.60;;
9836;SDS011;4957;51.412;6.724;2023-06-22T04:34:24;17.13;;;11.77;;
9836;SDS011;4957;51.412;6.724;2023-06-22T04:36:53;16.63;;;11.13;;
9836;SDS011;4957;51.412;6.724;2023-06-22T04:39:19;15.80;;;10.83;;
9836;SDS011;4957;51.412;6.724;2023-06-22T04:41:44;13.83;;;12.07;;
9836;SDS011;4957;51.412;6.724;2023-06-22T04:44:11;17.30;;;13.23;;
9836;SDS011;4957;51.412;6.724;2023-06-22T04:46:38;22.93;;;12.47;;
9836;SDS011;4957;51.412;6.724;2023-06-22T04:49:07;30.37;;;14.47;;
9836;SDS011;4957;51.412;6.724;2023-06-22T04:51:40;20.80;;;13.90;;
9836;SDS011;4957;51.412;6.724;2023-06-22T04:54:07;27.57;;;12.73;;
9836;SDS011;4957;51.412;6.724;2023-06-22T04:56:33;24.60;;;12.43;;
9836;SDS011;4957;51.412;6.724;2023-06-22T04:58:59;27.23;;;13.33;;
9836;SDS011;4957;51.412;6.724;2023-06-22T05:01:25;30.73;;;14.17;;
9836;SDS011;4957;51.412;6.724;2023-06-22T05:03:51;20.60;;;12.30;;
9836;SDS011;4957;51.412;6.724;2023-06-22T05:06:20;19.93;;;13.20;;
9836;SDS011;4957;51.412;6.724;2023-06-22T05:08:47;18.30;;;12.60;;
9836;SDS011;4957;51.412;6.724;2023-06-22T05:11:12;23.53;;;12.73;;
9836;SDS011;4957;51.412;6.724;2023-06-22T05:13:38;27.73;;;13.80;;
9836;SDS011;4957;51.412;6.724;2023-06-22T05:16:03;29.73;;;13.20;;
9836;SDS011;4957;51.412;6.724;2023-06-22T05:18:31;27.77;;;13.53;;
9836;SDS011;4957;51.412;6.724;2023-06-22T05:20:57;21.23;;;12.67;;
9836;SDS011;4957;51.412;6.724;2023-06-22T05:23:24;24.33;;;13.63;;
9836;SDS011;4957;51.412;6.724;2023-06-22T05:25:50;30.83;;;13.77;;
9836;SDS011;4957;51.412;6.724;2023-06-22T05:28:16;28.57;;;13.33;;
9836;SDS011;4957;51.412;6.724;2023-06-22T05:30:42;26.87;;;13.70;;
9836;SDS011;4957;51.412;6.724;2023-06-22T05:33:07;24.10;;;12.07;;
9836;SDS011;4957;51.412;6.724;2023-06-22T05:35:33;24.43;;;10.10;;
9836;SDS011;4957;51.412;6.724;2023-06-22T05:37:59;30.57;;;12.77;;
9836;SDS011;4957;51.412;6.724;2023-06-22T05:40:24;27.47;;;14.80;;
9836;SDS011;4957;51.412;6.724;2023-06-22T05:42:50;27.23;;;13.57;;
9836;SDS011;4957;51.412;6.724;2023-06-22T05:45:15;22.73;;;13.03;;
9836;SDS011;4957;51.412;6.724;2023-06-22T05:47:41;23.43;;;12.97;;
9836;SDS011;4957;51.412;6.724;2023-06-22T05:50:07;18.30;;;12.63;;
9836;SDS011;4957;51.412;6.724;2023-06-22T05:52:33;23.37;;;11.90;;
9836;SDS011;4957;51.412;6.724;2023-06-22T05:54:59;13.60;;;11.77;;
9836;SDS011;4957;51.412;6.724;2023-06-22T05:57:27;15.60;;;12.37;;
9836;SDS011;4957;51.412;6.724;2023-06-22T05:59:52;25.60;;;13.10;;
9836;SDS011;4957;51.412;6.724;2023-06-22T06:02:19;17.13;;;12.50;;
9836;SDS011;4957;51.412;6.724;2023-06-22T06:04:45;15.70;;;12.00;;
9836;SDS011;4957;51.412;6.724;2023-06-22T06:07:10;14.37;;;12.00;;
9836;SDS011;4957;51.412;6.724;2023-06-22T06:09:36;16.33;;;11.83;;
9836;SDS011;4957;51.412;6.724;2023-06-22T06:12:02;17.70;;;11.80;;
9836;SDS011;4957;51.412;6.724;2023-06-22T06:14:28;15.90;;;10.53;;
9836;SDS011;4957;51.412;6.724;2023-06-22T06:16:53;13.93;;;11.27;;
9836;SDS011;4957;51.412;6.724;2023-06-22T06:19:19;20.07;;;13.33;;
9836;SDS011;4957;51.412;6.724;2023-06-22T06:21:45;20.17;;;12.10;;
9836;SDS011;4957;51.412;6.724;2023-06-22T06:24:11;22.63;;;13.00;;
9836;SDS011;4957;51.412;6.724;2023-06-22T06:26:37;22.03;;;12.97;;
9836;SDS011;4957;51.412;6.724;2023-06-22T06:29:02;31.00;;;15.50;;
9836;SDS011;4957;51.412;6.724;2023-06-22T06:31:28;29.23;;;16.63;;
9836;SDS011;4957;51.412;6.724;2023-06-22T06:33:55;43.37;;;16.67;;
9836;SDS011;4957;51.412;6.724;2023-06-22T06:36:21;30.87;;;15.53;;
9836;SDS011;4957;51.412;6.724;2023-06-22T06:38:46;26.70;;;15.47;;
9836;SDS011;4957;51.412;6.724;2023-06-22T06:41:13;28.67;;;15.57;;
9836;SDS011;4957;51.412;6.724;2023-06-22T06:43:40;27.83;;;13.77;;
9836;SDS011;4957;51.412;6.724;2023-06-22T06:46:07;31.00;;;15.53;;
9836;SDS011;4957;51.412;6.724;2023-06-22T06:48:33;37.97;;;17.10;;
9836;SDS011;4957;51.412;6.724;2023-06-22T06:50:58;32.20;;;14.50;;
9836;SDS011;4957;51.412;6.724;2023-06-22T06:53:24;28.67;;;14.03;;
9836;SDS011;4957;51.412;6.724;2023-06-22T06:55:50;21.03;;;12.87;;
9836;SDS011;4957;51.412;6.724;2023-06-22T06:58:15;30.77;;;12.90;;
9836;SDS011;4957;51.412;6.724;2023-06-22T07:00:41;26.07;;;13.17;;
9836;SDS011;4957;51.412;6.724;2023-06-22T07:03:08;27.10;;;12.53;;
9836;SDS011;4957;51.412;6.724;2023-06-22T07:05:34;26.13;;;12.90;;
9836;SDS011;4957;51.412;6.724;2023-06-22T07:08:00;22.17;;;11.87;;
9836;SDS011;4957;51.412;6.724;2023-06-22T07:10:26;23.60;;;11.47;;
9836;SDS011;4957;51.412;6.724;2023-06-22T07:12:52;20.13;;;12.37;;
9836;SDS011;4957;51.412;6.724;2023-06-22T07:15:17;17.80;;;12.17;;
9836;SDS011;4957;51.412;6.724;2023-06-22T07:17:43;21.57;;;12.23;;
9836;SDS011;4957;51.412;6.724;2023-06-22T07:20:09;17.10;;;13.07;;
9836;SDS011;4957;51.412;6.724;2023-06-22T07:22:37;20.83;;;12.37;;
9836;SDS011;4957;51.412;6.724;2023-06-22T07:25:04;17.70;;;12.63;;
9836;SDS011;4957;51.412;6.724;2023-06-22T07:27:35;17.33;;;11.63;;
9836;SDS011;4957;51.412;6.724;2023-06-22T07:30:08;20.00;;;12.23;;
9836;SDS011;4957;51.412;6.724;2023-06-22T07:32:34;23.37;;;13.13;;
9836;SDS011;4957;51.412;6.724;2023-06-22T07:35:00;18.50;;;12.30;;
9836;SDS011;4957;51.412;6.724;2023-06-22T07:37:26;19.67;;;13.20;;
9836;SDS011;4957;51.412;6.724;2023-06-22T07:39:57;26.33;;;14.00;;
9836;SDS011;4957;51.412;6.724;2023-06-22T07:42:26;22.03;;;14.03;;
9836;SDS011;4957;51.412;6.724;2023-06-22T07:44:52;23.87;;;14.67;;
9836;SDS011;4957;51.412;6.724;2023-06-22T07:47:19;19.03;;;15.33;;
9836;SDS011;4957;51.412;6.724;2023-06-22T07:49:48;16.20;;;14.50;;
9836;SDS011;4957;51.412;6.724;2023-06-22T07:52:13;19.80;;;14.40;;
9836;SDS011;4957;51.412;6.724;2023-06-22T07:54:39;22.77;;;14.80;;
9836;SDS011;4957;51.412;6.724;2023-06-22T07:57:05;22.23;;;15.63;;
9836;SDS011;4957;51.412;6.724;2023-06-22T07:59:30;22.87;;;13.73;;
9836;SDS011;4957;51.412;6.724;2023-06-22T08:01:56;20.30;;;14.50;;
9836;SDS011;4957;51.412;6.724;2023-06-22T08:04:22;18.60;;;14.90;;
9836;SDS011;4957;51.412;6.724;2023-06-22T08:06:47;29.73;;;14.80;;
9836;SDS011;4957;51.412;6.724;2023-06-22T08:09:14;24.13;;;15.77;;
9836;SDS011;4957;51.412;6.724;2023-06-22T08:11:40;22.07;;;15.50;;
9836;SDS011;4957;51.412;6.724;2023-06-22T08:14:05;22.20;;;15.57;;
9836;SDS011;4957;51.412;6.724;2023-06-22T08:16:31;22.83;;;15.10;;
9836;SDS011;4957;51.412;6.724;2023-06-22T08:18:57;18.67;;;14.40;;
9836;SDS011;4957;51.412;6.724;2023-06-22T08:21:22;19.80;;;13.97;;
9836;SDS011;4957;51.412;6.724;2023-06-22T08:23:48;20.13;;;14.57;;
9836;SDS011;4957;51.412;6.724;2023-06-22T08:26:14;23.47;;;15.03;;
9836;SDS011;4957;51.412;6.724;2023-06-22T08:28:40;24.53;;;15.57;;
9836;SDS011;4957;51.412;6.724;2023-06-22T08:31:05;30.40;;;14.73;;
9836;SDS011;4957;51.412;6.724;2023-06-22T08:33:31;22.03;;;14.33;;
9836;SDS011;4957;51.412;6.724;2023-06-22T08:35:57;22.90;;;14.97;;
9836;SDS011;4957;51.412;6.724;2023-06-22T08:38:24;23.30;;;15.00;;
9836;SDS011;4957;51.412;6.724;2023-06-22T08:40:50;26.60;;;15.50;;
9836;SDS011;4957;51.412;6.724;2023-06-22T08:43:16;26.07;;;17.43;;
9836;SDS011;4957;51.412;6.724;2023-06-22T08:45:41;33.37;;;16.70;;
9836;SDS011;4957;51.412;6.724;2023-06-22T08:48:07;22.47;;;15.23;;
9836;SDS011;4957;51.412;6.724;2023-06-22T08:50:33;21.77;;;13.57;;
9836;SDS011;4957;51.412;6.724;2023-06-22T08:52:58;18.43;;;13.93;;
9836;SDS011;4957;51.412;6.724;2023-06-22T08:55:24;21.73;;;14.87;;
9836;SDS011;4957;51.412;6.724;2023-06-22T08:57:49;19.33;;;13.67;;
9836;SDS011;4957;51.412;6.724;2023-06-22T09:00:16;24.93;;;16.47;;
9836;SDS011;4957;51.412;6.724;2023-06-22T09:02:43;23.47;;;14.93;;
9836;SDS011;4957;51.412;6.724;2023-06-22T09:05:10;24.37;;;16.17;;
9836;SDS011;4957;51.412;6.724;2023-06-22T09:07:35;24.03;;;14.07;;
9836;SDS011;4957;51.412;6.724;2023-06-22T09:10:01;26.37;;;14.47;;
9836;SDS011;4957;51.412;6.724;2023-06-22T09:12:29;21.90;;;14.47;;
9836;SDS011;4957;51.412;6.724;2023-06-22T09:14:55;25.00;;;14.93;;
9836;SDS011;4957;51.412;6.724;2023-06-22T09:17:21;22.17;;;14.47;;
9836;SDS011;4957;51.412;6.724;2023-06-22T09:19:47;26.10;;;15.17;;
9836;SDS011;4957;51.412;6.724;2023-06-22T09:22:13;23.30;;;14.37;;
9836;SDS011;4957;51.412;6.724;2023-06-22T09:24:39;21.03;;;13.37;;
9836;SDS011;4957;51.412;6.724;2023-06-22T09:27:05;23.83;;;14.60;;
9836;SDS011;4957;51.412;6.724;2023-06-22T09:29:31;16.47;;;12.27;;
9836;SDS011;4957;51.412;6.724;2023-06-22T09:31:59;20.83;;;13.13;;
9836;SDS011;4957;51.412;6.724;2023-06-22T09:34:27;19.33;;;13.53;;
9836;SDS011;4957;51.412;6.724;2023-06-22T09:36:53;18.10;;;13.23;;
9836;SDS011;4957;51.412;6.724;2023-06-22T09:39:18;20.87;;;12.70;;
9836;SDS011;4957;51.412;6.724;2023-06-22T09:41:44;19.87;;;13.10;;
9836;SDS011;4957;51.412;6.724;2023-06-22T09:44:10;16.83;;;12.20;;
9836;SDS011;4957;51.412;6.724;2023-06-22T09:46:35;18.90;;;12.93;;
9836;SDS011;4957;51.412;6.724;2023-06-22T09:49:01;20.73;;;13.47;;
9836;SDS011;4957;51.412;6.724;2023-06-22T09:51:26;16.13;;;11.87;;
9836;SDS011;4957;51.412;6.724;2023-06-22T09:53:52;23.20;;;12.73;;
9836;SDS011;4957;51.412;6.724;2023-06-22T09:56:21;17.33;;;12.67;;
9836;SDS011;4957;51.412;6.724;2023-06-22T09:58:47;20.10;;;11.33;;
9836;SDS011;4957;51.412;6.724;2023-06-22T10:01:15;18.20;;;12.83;;
9836;SDS011;4957;51.412;6.724;2023-06-22T10:03:41;14.70;;;10.70;;
9836;SDS011;4957;51.412;6.724;2023-06-22T10:06:07;21.07;;;12.67;;
9836;SDS011;4957;51.412;6.724;2023-06-22T10:08:33;17.17;;;13.03;;
9836;SDS011;4957;51.412;6.724;2023-06-22T10:10:59;24.50;;;11.90;;
9836;SDS011;4957;51.412;6.724;2023-06-22T10:13:25;18.80;;;11.73;;
9836;SDS011;4957;51.412;6.724;2023-06-22T10:15:51;21.13;;;12.47;;
9836;SDS011;4957;51.412;6.724;2023-06-22T10:18:20;26.73;;;12.40;;
9836;SDS011;4957;51.412;6.724;2023-06-22T10:20:49;24.67;;;12.83;;
9836;SDS011;4957;51.412;6.724;2023-06-22T10:23:19;22.20;;;12.40;;
9836;SDS011;4957;51.412;6.724;2023-06-22T10:25:45;20.07;;;11.83;;
9836;SDS011;4957;51.412;6.724;2023-06-22T10:28:11;19.70;;;11.40;;
9836;SDS011;4957;51.412;6.724;2023-06-22T10:30:37;20.77;;;10.80;;
9836;SDS011;4957;51.412;6.724;2023-06-22T10:33:07;18.07;;;12.57;;
9836;SDS011;4957;51.412;6.724;2023-06-22T10:35:33;18.40;;;11.77;;
9836;SDS011;4957;51.412;6.724;2023-06-22T10:37:59;17.00;;;11.77;;
9836;SDS011;4957;51.412;6.724;2023-06-22T10:40:25;17.03;;;11.27;;
9836;SDS011;4957;51.412;6.724;2023-06-22T10:42:51;17.93;;;11.87;;
9836;SDS011;4957;51.412;6.724;2023-06-22T10:45:16;20.83;;;12.07;;
9836;SDS011;4957;51.412;6.724;2023-06-22T10:47:42;14.87;;;11.67;;
9836;SDS011;4957;51.412;6.724;2023-06-22T10:50:08;16.77;;;11.07;;
9836;SDS011;4957;51.412;6.724;2023-06-22T10:52:34;17.13;;;11.73;;
9836;SDS011;4957;51.412;6.724;2023-06-22T10:54:59;17.47;;;11.60;;
9836;SDS011;4957;51.412;6.724;2023-06-22T10:57:25;19.90;;;10.90;;
9836;SDS011;4957;51.412;6.724;2023-06-22T10:59:51;12.87;;;10.30;;
9836;SDS011;4957;51.412;6.724;2023-06-22T11:02:16;10.23;;;9.17;;
9836;SDS011;4957;51.412;6.724;2023-06-22T11:04:42;22.03;;;11.47;;
9836;SDS011;4957;51.412;6.724;2023-06-22T11:07:08;12.83;;;11.10;;
9836;SDS011;4957;51.412;6.724;2023-06-22T11:09:34;12.03;;;10.60;;
9836;SDS011;4957;51.412;6.724;2023-06-22T11:12:00;16.03;;;10.80;;
9836;SDS011;4957;51.412;6.724;2023-06-22T11:14:25;12.67;;;11.47;;
9836;SDS011;4957;51.412;6.724;2023-06-22T11:16:51;13.97;;;11.90;;
9836;SDS011;4957;51.412;6.724;2023-06-22T11:19:17;17.80;;;12.07;;
9836;SDS011;4957;51.412;6.724;2023-06-22T11:21:43;23.93;;;12.57;;
9836;SDS011;4957;51.412;6.724;2023-06-22T11:24:09;22.73;;;13.07;;
9836;SDS011;4957;51.412;6.724;2023-06-22T11:26:34;22.13;;;13.30;;
9836;SDS011;4957;51.412;6.724;2023-06-22T11:29:00;28.67;;;12.70;;
9836;SDS011;4957;51.412;6.724;2023-06-22T11:31:30;23.87;;;13.90;;
9836;SDS011;4957;51.412;6.724;2023-06-22T11:33:56;31.33;;;15.50;;
9836;SDS011;4957;51.412;6.724;2023-06-22T11:36:22;69.57;;;17.73;;
9836;SDS011;4957;51.412;6.724;2023-06-22T11:38:47;69.40;;;18.90;;
9836;SDS011;4957;51.412;6.724;2023-06-22T11:41:13;61.83;;;19.60;;
9836;SDS011;4957;51.412;6.724;2023-06-22T11:43:39;81.60;;;19.30;;
9836;SDS011;4957;51.412;6.724;2023-06-22T11:46:04;29.33;;;17.47;;
9836;SDS011;4957;51.412;6.724;2023-06-22T11:48:30;39.13;;;17.27;;
9836;SDS011;4957;51.412;6.724;2023-06-22T11:50:56;25.37;;;17.97;;
9836;SDS011;4957;51.412;6.724;2023-06-22T11:53:23;26.57;;;18.13;;
9836;SDS011;4957;51.412;6.724;2023-06-22T11:55:50;25.83;;;18.93;;
9836;SDS011;4957;51.412;6.724;2023-06-22T11:58:16;28.77;;;17.57;;
9836;SDS011;4957;51.412;6.724;2023-06-22T12:00:41;0.40;;;0.40;;
9836;SDS011;4957;51.412;6.724;2023-06-22T12:03:07;0.00;;;0.00;;
9836;SDS011;4957;51.412;6.724;2023-06-22T12:05:34;0.13;;;0.10;;
9836;SDS011;4957;51.412;6.724;2023-06-22T12:08:00;0.00;;;0.00;;
9836;SDS011;4957;51.412;6.724;2023-06-22T12:10:26;0.00;;;0.00;;
9836;SDS011;4957;51.412;6.724;2023-06-22T12:12:55;0.00;;;0.00;;
9836;SDS011;4957;51.412;6.724;2023-06-22T12:15:22;0.00;;;0.00;;
9836;SDS011;4957;51.412;6.724;2023-06-22T12:17:48;0.00;;;0.00;;
9836;SDS011;4957;51.412;6.724;2023-06-22T12:20:14;2.47;;;1.33;;
9836;SDS011;4957;51.412;6.724;2023-06-22T12:22:40;0.00;;;0.00;;
9836;SDS011;4957;51.412;6.724;2023-06-22T12:25:07;0.00;;;0.00;;
9836;SDS011;4957;51.412;6.724;2023-06-22T12:27:33;0.00;;;0.00;;
9836;SDS011;4957;51.412;6.724;2023-06-22T12:29:59;0.13;;;0.13;;
9836;SDS011;4957;51.412;6.724;2023-06-22T12:32:25;0.00;;;0.00;;
9836;SDS011;4957;51.412;6.724;2023-06-22T12:34:51;0.57;;;0.20;;
9836;SDS011;4957;51.412;6.724;2023-06-22T12:37:16;0.00;;;0.00;;
9836;SDS011;4957;51.412;6.724;2023-06-22T12:39:42;0.00;;;0.00;;
9836;SDS011;4957;51.412;6.724;2023-06-22T12:42:08;15.97;;;1.03;;
9836;SDS011;4957;51.412;6.724;2023-06-22T12:44:35;0.00;;;0.00;;
9836;SDS011;4957;51.412;6.724;2023-06-22T12:47:00;3.20;;;0.20;;
9836;SDS011;4957;51.412;6.724;2023-06-22T12:49:26;0.10;;;0.10;;
9836;SDS011;4957;51.412;6.724;2023-06-22T12:51:52;4.77;;;1.17;;
9836;SDS011;4957;51.412;6.724;2023-06-22T12:54:17;0.00;;;0.00;;
9836;SDS011;4957;51.412;6.724;2023-06-22T12:56:43;0.10;;;0.10;;
9836;SDS011;4957;51.412;6.724;2023-06-22T12:59:10;0.10;;;0.10;;
9836;SDS011;4957;51.412;6.724;2023-06-22T13:01:36;0.10;;;0.10;;
9836;SDS011;4957;51.412;6.724;2023-06-22T13:04:02;0.30;;;0.30;;
9836;SDS011;4957;51.412;6.724;2023-06-22T13:06:28;0.10;;;0.10;;
9836;SDS011;4957;51.412;6.724;2023-06-22T13:08:53;0.20;;;0.07;;
9836;SDS011;4957;51.412;6.724;2023-06-22T13:11:19;0.50;;;0.50;;
9836;SDS011;4957;51.412;6.724;2023-06-22T13:13:45;0.17;;;0.17;;
9836;SDS011;4957;51.412;6.724;2023-06-22T13:16:11;0.00;;;0.00;;
9836;SDS011;4957;51.412;6.724;2023-06-22T13:18:37;0.00;;;0.00;;
9836;SDS011;4957;51.412;6.724;2023-06-22T13:21:04;0.00;;;0.00;;
9836;SDS011;4957;51.412;6.724;2023-06-22T13:23:30;0.17;;;0.17;;
9836;SDS011;4957;51.412;6.724;2023-06-22T13:25:56;0.00;;;0.00;;
9836;SDS011;4957;51.412;6.724;2023-06-22T13:28:22;0.27;;;0.27;;
9836;SDS011;4957;51.412;6.724;2023-06-22T13:30:48;0.13;;;0.13;;
9836;SDS011;4957;51.412;6.724;2023-06-22T13:33:13;0.00;;;0.00;;
9836;SDS011;4957;51.412;6.724;2023-06-22T13:35:40;0.00;;;0.00;;
9836;SDS011;4957;51.412;6.724;2023-06-22T13:38:07;0.00;;;0.00;;
9836;SDS011;4957;51.412;6.724;2023-06-22T13:40:37;0.10;;;0.10;;
9836;SDS011;4957;51.412;6.724;2023-06-22T13:43:03;0.00;;;0.00;;
9836;SDS011;4957;51.412;6.724;2023-06-22T13:45:29;0.23;;;0.10;;
9836;SDS011;4957;51.412;6.724;2023-06-22T13:47:55;0.00;;;0.00;;
9836;SDS011;4957;51.412;6.724;2023-06-22T13:50:21;0.10;;;0.00;;
9836;SDS011;4957;51.412;6.724;2023-06-22T13:52:47;0.00;;;0.00;;
9836;SDS011;4957;51.412;6.724;2023-06-22T13:55:12;0.00;;;0.00;;
9836;SDS011;4957;51.412;6.724;2023-06-22T13:57:39;0.00;;;0.00;;
9836;SDS011;4957;51.412;6.724;2023-06-22T14:00:06;0.00;;;0.00;;
9836;SDS011;4957;51.412;6.724;2023-06-22T14:02:33;0.00;;;0.00;;
9836;SDS011;4957;51.412;6.724;2023-06-22T14:04:58;0.00;;;0.00;;
9836;SDS011;4957;51.412;6.724;2023-06-22T14:07:24;0.00;;;0.00;;
9836;SDS011;4957;51.412;6.724;2023-06-22T14:09:50;0.50;;;0.50;;
9836;SDS011;4957;51.412;6.724;2023-06-22T14:12:15;0.00;;;0.00;;
9836;SDS011;4957;51.412;6.724;2023-06-22T14:14:43;0.00;;;0.00;;
9836;SDS011;4957;51.412;6.724;2023-06-22T14:17:08;0.10;;;0.10;;
9836;SDS011;4957;51.412;6.724;2023-06-22T14:19:34;0.27;;;0.27;;
9836;SDS011;4957;51.412;6.724;2023-06-22T14:22:00;0.17;;;0.17;;
9836;SDS011;4957;51.412;6.724;2023-06-22T14:24:26;0.10;;;0.10;;
9836;SDS011;4957;51.412;6.724;2023-06-22T14:26:52;0.00;;;0.00;;
9836;SDS011;4957;51.412;6.724;2023-06-22T14:29:17;0.20;;;0.20;;
9836;SDS011;4957;51.412;6.724;2023-06-22T14:31:46;0.20;;;0.20;;
9836;SDS011;4957;51.412;6.724;2023-06-22T14:34:13;0.00;;;0.00;;
9836;SDS011;4957;51.412;6.724;2023-06-22T14:36:39;0.00;;;0.00;;
9836;SDS011;4957;51.412;6.724;2023-06-22T14:39:05;0.10;;;0.10;;
9836;SDS011;4957;51.412;6.724;2023-06-22T14:41:30;0.00;;;0.00;;
9836;SDS011;4957;51.412;6.724;2023-06-22T14:43:56;0.03;;;0.03;;
9836;SDS011;4957;51.412;6.724;2023-06-22T14:46:22;0.10;;;0.10;;
9836;SDS011;4957;51.412;6.724;2023-06-22T14:48:48;0.07;;;0.07;;
9836;SDS011;4957;51.412;6.724;2023-06-22T14:51:13;0.00;;;0.00;;
9836;SDS011;4957;51.412;6.724;2023-06-22T14:53:39;0.20;;;0.20;;
9836;SDS011;4957;51.412;6.724;2023-06-22T14:56:06;0.00;;;0.00;;
9836;SDS011;4957;51.412;6.724;2023-06-22T14:58:32;0.00;;;0.00;;
9836;SDS011;4957;51.412;6.724;2023-06-22T15:00:59;0.00;;;0.00;;
9836;SDS011;4957;51.412;6.724;2023-06-22T15:03:25;0.30;;;0.30;;
9836;SDS011;4957;51.412;6.724;2023-06-22T15:05:53;0.00;;;0.00;;
9836;SDS011;4957;51.412;6.724;2023-06-22T15:08:20;0.00;;;0.00;;